createdAt,value
2022-08-09T00:00:00.717Z,97622.22
2022-08-09T00:02:32.392Z,97611.59
2022-08-09T00:05:02.920Z,97616.97
2022-08-09T00:07:46.154Z,97621.75
2022-08-09T00:10:17.913Z,97625.63
2022-08-09T00:12:51.544Z,97620.31
2022-08-09T00:15:26.616Z,97627.38
2022-08-09T00:18:11.319Z,97619.91
2022-08-09T00:20:42.554Z,97625.72
2022-08-09T00:23:55.323Z,97634.31
2022-08-09T00:26:05.406Z,97630.41
2022-08-09T00:28:34.536Z,97625.28
2022-08-09T00:31:30.682Z,97635.47
2022-08-09T00:33:52.107Z,97636.22
2022-08-09T00:36:20.246Z,97627.63
2022-08-09T00:38:46.923Z,97633.88
2022-08-09T00:44:13.720Z,97626.78
2022-08-09T00:44:13.947Z,97635.66
2022-08-09T00:46:57.401Z,97634.00
2022-08-09T00:49:30.330Z,97628.22
2022-08-09T00:52:05.180Z,97635.03
2022-08-09T00:54:36.327Z,97633.91
2022-08-09T00:57:10.227Z,97630.88
2022-08-09T00:59:41.035Z,97627.72
2022-08-09T01:02:20.218Z,97626.75
2022-08-09T01:04:50.309Z,97639.59
2022-08-09T01:07:59.902Z,97634.41
2022-08-09T01:10:51.942Z,97637.66
2022-08-09T01:13:58.817Z,97641.88
2022-08-09T01:16:39.524Z,97643.38
2022-08-09T01:19:57.281Z,97642.00
2022-08-09T01:22:58.204Z,97639.81
2022-08-09T01:26:06.578Z,97645.72
2022-08-09T01:28:35.965Z,97641.28
2022-08-09T01:31:06.597Z,97644.09
2022-08-09T01:33:38.409Z,97633.34
2022-08-09T01:36:09.063Z,97634.25
2022-08-09T01:38:40.057Z,97638.66
2022-08-09T01:41:18.583Z,97643.59
2022-08-09T01:43:55.641Z,97639.28
2022-08-09T01:46:29.265Z,97646.59
2022-08-09T01:49:10.285Z,97649.31
2022-08-09T01:51:53.905Z,97651.72
2022-08-09T01:54:32.853Z,97650.44
2022-08-09T01:57:06.227Z,97650.81
2022-08-09T01:59:41.042Z,97653.00
2022-08-09T02:02:21.785Z,97653.16
2022-08-09T02:04:50.960Z,97649.59
2022-08-09T02:08:39.491Z,97647.59
2022-08-09T02:10:13.664Z,97646.72
2022-08-09T02:12:44.075Z,97650.00
2022-08-09T02:15:16.657Z,97658.38
2022-08-09T02:18:09.542Z,97656.38
2022-08-09T02:20:35.250Z,97658.69
2022-08-09T02:23:12.655Z,97664.63
2022-08-09T02:25:42.569Z,97661.34
2022-08-09T02:28:24.204Z,97661.09
2022-08-09T02:30:58.669Z,97668.72
2022-08-09T02:33:38.025Z,97668.84
2022-08-09T02:36:22.343Z,97676.31
2022-08-09T02:38:58.388Z,97663.91
2022-08-09T02:41:32.907Z,97669.22
2022-08-09T02:44:06.629Z,97667.47
2022-08-09T02:46:41.673Z,97666.91
2022-08-09T02:49:14.648Z,97669.13
2022-08-09T02:51:44.762Z,97670.47
2022-08-09T02:54:15.888Z,97665.38
2022-08-09T02:56:51.597Z,97667.81
2022-08-09T02:59:26.620Z,97667.38
2022-08-09T03:02:09.772Z,97669.31
2022-08-09T03:04:45.610Z,97666.66
2022-08-09T03:07:14.670Z,97666.38
2022-08-09T03:09:43.430Z,97653.50
2022-08-09T03:12:23.447Z,97653.25
2022-08-09T03:14:52.107Z,97661.09
2022-08-09T03:17:27.231Z,97667.34
2022-08-09T03:20:03.426Z,97662.16
2022-08-09T03:22:41.403Z,97669.09
2022-08-09T03:25:27.037Z,97662.63
2022-08-09T03:28:01.740Z,97670.00
2022-08-09T03:30:34.009Z,97665.97
2022-08-09T03:33:17.078Z,97668.16
2022-08-09T03:36:13.314Z,97670.28
2022-08-09T03:38:41.919Z,97668.66
2022-08-09T03:41:15.472Z,97668.16
2022-08-09T03:44:02.965Z,97671.53
2022-08-09T03:46:31.323Z,97675.06
2022-08-09T03:49:04.368Z,97669.25
2022-08-09T03:51:57.699Z,97675.25
2022-08-09T03:54:34.898Z,97674.63
2022-08-09T03:57:17.933Z,97672.91
2022-08-09T03:59:53.802Z,97678.06
2022-08-09T04:02:28.501Z,97679.00
2022-08-09T04:05:05.952Z,97681.84
2022-08-09T04:07:52.906Z,97686.41
2022-08-09T04:10:28.701Z,97694.78
2022-08-09T04:12:58.035Z,97694.38
2022-08-09T04:15:42.807Z,97699.22
2022-08-09T04:18:16.688Z,97698.69
2022-08-09T04:20:46.182Z,97697.66
2022-08-09T04:23:17.347Z,97691.41
2022-08-09T04:25:52.265Z,97699.09
2022-08-09T04:28:30.597Z,97696.97
2022-08-09T04:31:01.159Z,97694.41
2022-08-09T04:33:34.538Z,97689.84
2022-08-09T04:36:19.498Z,97697.78
2022-08-09T04:38:46.551Z,97701.50
2022-08-09T04:41:14.317Z,97707.72
2022-08-09T04:43:54.000Z,97707.16
2022-08-09T04:46:37.339Z,97709.00
2022-08-09T04:49:15.144Z,97703.34
2022-08-09T04:51:41.743Z,97702.91
2022-08-09T04:54:08.671Z,97711.00
2022-08-09T04:56:37.026Z,97710.28
2022-08-09T04:59:07.722Z,97715.75
2022-08-09T05:01:39.846Z,97710.41
2022-08-09T05:04:06.535Z,97712.03
2022-08-09T05:06:35.960Z,97721.38
2022-08-09T05:09:02.838Z,97718.53
2022-08-09T05:11:35.409Z,97724.19
2022-08-09T05:14:05.956Z,97725.81
2022-08-09T05:16:33.047Z,97723.94
2022-08-09T05:19:00.616Z,97720.75
2022-08-09T05:21:29.956Z,97721.59
2022-08-09T05:24:01.213Z,97716.72
2022-08-09T05:26:36.139Z,97723.03
2022-08-09T05:29:17.473Z,97717.97
2022-08-09T05:31:56.172Z,97712.88
2022-08-09T05:34:30.087Z,97711.31
2022-08-09T05:37:06.233Z,97710.19
2022-08-09T05:39:43.886Z,97720.16
2022-08-09T05:42:17.692Z,97715.09
2022-08-09T05:44:50.957Z,97718.78
2022-08-09T05:47:19.375Z,97716.34
2022-08-09T05:50:16.889Z,97724.59
2022-08-09T05:52:36.046Z,97719.06
2022-08-09T05:55:07.240Z,97713.03
2022-08-09T05:57:51.046Z,97718.75
2022-08-09T06:00:22.592Z,97716.25
2022-08-09T06:02:49.370Z,97712.84
2022-08-09T06:05:21.124Z,97714.69
2022-08-09T06:08:09.233Z,97717.25
2022-08-09T06:10:38.034Z,97720.94
2022-08-09T06:13:18.832Z,97721.06
2022-08-09T06:15:52.632Z,97726.06
2022-08-09T06:18:25.098Z,97726.53
2022-08-09T06:20:57.931Z,97728.53
2022-08-09T06:23:54.933Z,97728.59
2022-08-09T06:26:20.969Z,97736.06
2022-08-09T06:29:01.018Z,97734.88
2022-08-09T06:31:39.877Z,97735.09
2022-08-09T06:34:22.649Z,97732.78
2022-08-09T06:36:57.339Z,97741.31
2022-08-09T06:39:38.861Z,97732.44
2022-08-09T06:42:13.114Z,97735.75
2022-08-09T06:44:39.756Z,97736.94
2022-08-09T06:47:06.502Z,97742.97
2022-08-09T06:50:11.809Z,97732.00
2022-08-09T06:52:25.116Z,97736.25
2022-08-09T06:54:54.046Z,97737.88
2022-08-09T06:57:25.902Z,97736.69
2022-08-09T07:00:57.133Z,97739.78
2022-08-09T07:02:56.147Z,97745.56
2022-08-09T07:05:24.544Z,97748.69
2022-08-09T07:08:11.148Z,97735.59
2022-08-09T07:10:38.433Z,97744.47
2022-08-09T07:13:27.646Z,97736.06
2022-08-09T07:16:38.787Z,97742.81
2022-08-09T07:18:39.226Z,97751.69
2022-08-09T07:21:08.015Z,97748.84
2022-08-09T07:23:36.225Z,97741.56
2022-08-09T07:26:04.198Z,97740.91
2022-08-09T07:28:34.824Z,97741.16
2022-08-09T07:31:04.741Z,97743.91
2022-08-09T07:33:52.566Z,97743.50
2022-08-09T07:36:22.064Z,97751.09
2022-08-09T07:38:56.735Z,97749.28
2022-08-09T07:41:27.384Z,97752.09
2022-08-09T07:44:00.198Z,97741.94
2022-08-09T07:46:27.782Z,97736.91
2022-08-09T07:48:59.649Z,97744.50
2022-08-09T07:52:05.173Z,97746.00
2022-08-09T07:54:15.746Z,97742.88
2022-08-09T07:56:54.534Z,97750.69
2022-08-09T07:59:25.116Z,97745.53
2022-08-09T08:02:00.397Z,97751.97
2022-08-09T08:04:31.657Z,97750.13
2022-08-09T08:07:00.236Z,97745.00
2022-08-09T08:09:42.978Z,97748.78
2022-08-09T08:12:27.441Z,97741.78
2022-08-09T08:14:56.964Z,97753.47
2022-08-09T08:17:35.412Z,97745.56
2022-08-09T08:20:13.001Z,97739.09
2022-08-09T08:22:41.248Z,97744.25
2022-08-09T08:25:13.310Z,97744.44
2022-08-09T08:27:42.987Z,97735.75
2022-08-09T08:30:11.998Z,97743.63
2022-08-09T08:32:52.177Z,97739.84
2022-08-09T08:35:19.992Z,97740.72
2022-08-09T08:37:59.458Z,97740.19
2022-08-09T08:40:29.542Z,97735.34
2022-08-09T08:42:58.893Z,97747.44
2022-08-09T08:46:10.179Z,97750.44
2022-08-09T08:48:51.437Z,97742.06
2022-08-09T08:51:22.519Z,97736.69
2022-08-09T08:54:02.585Z,97729.38
2022-08-09T08:56:37.604Z,97735.63
2022-08-09T08:59:19.150Z,97737.47
2022-08-09T09:01:52.714Z,97736.41
2022-08-09T09:04:27.050Z,97736.66
2022-08-09T09:06:58.111Z,97731.41
2022-08-09T09:09:58.555Z,97733.69
2022-08-09T09:12:16.984Z,97745.84
2022-08-09T09:14:59.055Z,97742.41
2022-08-09T09:17:25.800Z,97739.69
2022-08-09T09:20:15.358Z,97741.00
2022-08-09T09:22:56.293Z,97742.38
2022-08-09T09:26:01.002Z,97729.38
2022-08-09T09:29:02.406Z,97727.50
2022-08-09T09:32:06.038Z,97721.84
2022-08-09T09:34:14.218Z,97736.97
2022-08-09T09:36:53.314Z,97732.59
2022-08-09T09:39:42.698Z,97725.88
2022-08-09T09:42:24.347Z,97726.16
2022-08-09T09:44:57.656Z,97716.94
2022-08-09T09:47:24.575Z,97720.97
2022-08-09T09:50:13.236Z,97728.31
2022-08-09T09:52:53.809Z,97724.47
2022-08-09T09:55:28.708Z,97713.16
2022-08-09T09:58:16.922Z,97703.81
2022-08-09T10:00:58.438Z,97708.41
2022-08-09T10:03:56.190Z,97719.25
2022-08-09T10:06:24.667Z,97705.75
2022-08-09T10:08:58.553Z,97692.50
2022-08-09T10:12:07.772Z,97696.91
2022-08-09T10:14:33.058Z,97690.84
2022-08-09T10:17:11.530Z,97693.91
2022-08-09T10:19:47.266Z,97703.22
2022-08-09T10:22:33.088Z,97710.69
2022-08-09T10:25:03.455Z,97696.31
2022-08-09T10:27:38.557Z,97694.66
2022-08-09T10:31:38.166Z,97693.91
2022-08-09T10:33:00.403Z,97700.25
2022-08-09T10:35:35.250Z,97701.28
2022-08-09T10:38:02.228Z,97695.97
2022-08-09T10:40:34.748Z,97690.66
2022-08-09T10:43:05.924Z,97682.34
2022-08-09T10:45:42.392Z,97682.81
2022-08-09T10:49:02.100Z,97688.78
2022-08-09T10:51:55.235Z,97691.50
2022-08-09T10:54:26.998Z,97685.53
2022-08-09T10:57:34.634Z,97698.06
2022-08-09T11:00:29.873Z,97684.72
2022-08-09T11:03:12.072Z,97673.66
2022-08-09T11:06:18.556Z,97680.44
2022-08-09T11:08:51.251Z,97675.25
2022-08-09T11:11:20.471Z,97670.97
2022-08-09T11:13:50.660Z,97680.72
2022-08-09T11:16:37.419Z,97682.81
2022-08-09T11:19:09.376Z,97663.22
2022-08-09T11:21:57.507Z,97671.84
2022-08-09T11:25:08.108Z,97658.59
2022-08-09T11:28:04.430Z,97657.13
2022-08-09T11:30:32.579Z,97655.06
2022-08-09T11:33:10.977Z,97650.72
2022-08-09T11:35:49.018Z,97667.63
2022-08-09T11:38:18.198Z,97652.41
2022-08-09T11:40:45.382Z,97660.56
2022-08-09T11:43:17.559Z,97653.97
2022-08-09T11:46:01.935Z,97659.66
2022-08-09T11:48:31.833Z,97653.09
2022-08-09T11:52:48.909Z,97648.78
2022-08-09T11:54:00.706Z,97657.25
2022-08-09T11:56:34.415Z,97656.25
2022-08-09T11:59:29.978Z,97648.22
2022-08-09T12:02:18.408Z,97657.22
2022-08-09T12:04:47.055Z,97657.34
2022-08-09T12:07:14.273Z,97637.63
2022-08-09T12:09:50.242Z,97641.41
2022-08-09T12:12:20.490Z,97643.03
2022-08-09T12:15:04.403Z,97637.91
2022-08-09T12:17:43.378Z,97646.28
2022-08-09T12:20:21.839Z,97640.66
2022-08-09T12:23:01.591Z,97634.41
2022-08-09T12:25:35.708Z,97622.72
2022-08-09T12:29:15.614Z,97630.13
2022-08-09T12:31:30.823Z,97632.63
2022-08-09T12:34:13.873Z,97635.75
2022-08-09T12:36:58.808Z,97627.63
2022-08-09T12:39:37.651Z,97630.06
2022-08-09T12:42:08.618Z,97627.03
2022-08-09T12:44:39.986Z,97614.00
2022-08-09T12:47:12.976Z,97609.13
2022-08-09T12:49:50.978Z,97607.47
2022-08-09T12:52:19.703Z,97621.47
2022-08-09T12:56:15.950Z,97616.28
2022-08-09T12:57:55.001Z,97612.22
2022-08-09T13:00:34.513Z,97607.41
2022-08-09T13:03:03.780Z,97600.44
2022-08-09T13:05:51.797Z,97603.25
2022-08-09T13:08:40.790Z,97604.47
2022-08-09T13:11:23.360Z,97609.41
2022-08-09T13:14:42.089Z,97613.81
2022-08-09T13:16:56.630Z,97605.97
2022-08-09T13:20:08.938Z,97600.03
2022-08-09T13:22:35.771Z,97602.63
2022-08-09T13:25:05.538Z,97596.19
2022-08-09T13:27:40.037Z,97583.91
2022-08-09T13:30:51.592Z,97592.28
2022-08-09T13:33:07.040Z,97588.88
2022-08-09T13:36:24.592Z,97590.50
2022-08-09T13:38:55.886Z,97588.25
2022-08-09T13:41:51.801Z,97591.41
2022-08-09T13:43:58.793Z,97596.00
2022-08-09T13:47:16.643Z,97587.06
2022-08-09T13:49:15.958Z,97575.75
2022-08-09T13:51:58.712Z,97579.28
2022-08-09T13:54:27.691Z,97577.84
2022-08-09T13:56:57.096Z,97585.75
2022-08-09T13:59:26.552Z,97590.00
2022-08-09T14:02:08.734Z,97587.84
2022-08-09T14:04:36.784Z,97584.00
2022-08-09T14:07:04.374Z,97576.09
2022-08-09T14:09:34.834Z,97582.28
2022-08-09T14:12:04.592Z,97588.28
2022-08-09T14:14:35.065Z,97573.66
2022-08-09T14:17:01.954Z,97574.97
2022-08-09T14:19:33.236Z,97572.19
2022-08-09T14:22:00.666Z,97583.09
2022-08-09T14:24:32.511Z,97583.44
2022-08-09T14:27:01.357Z,97596.03
2022-08-09T14:30:35.341Z,97590.16
2022-08-09T14:32:16.315Z,97581.31
2022-08-09T14:34:46.492Z,97584.53
2022-08-09T14:37:28.414Z,97581.41
2022-08-09T14:40:08.439Z,97587.66
2022-08-09T14:42:36.983Z,97588.56
2022-08-09T14:45:14.909Z,97588.97
2022-08-09T14:47:59.700Z,97584.28
2022-08-09T14:50:28.677Z,97594.06
2022-08-09T14:52:55.665Z,97596.75
2022-08-09T14:55:22.340Z,97590.31
2022-08-09T14:57:49.451Z,97589.22
2022-08-09T15:00:17.169Z,97578.91
2022-08-09T15:02:47.562Z,97594.75
2022-08-09T15:05:18.853Z,97596.03
2022-08-09T15:07:54.577Z,97594.16
2022-08-09T15:10:24.878Z,97587.63
2022-08-09T15:12:53.076Z,97581.59
2022-08-09T15:15:20.315Z,97579.22
2022-08-09T15:17:52.368Z,97588.47
2022-08-09T15:21:54.920Z,97585.00
2022-08-09T15:24:01.170Z,97586.84
2022-08-09T15:25:54.270Z,97587.72
2022-08-09T15:28:28.002Z,97590.38
2022-08-09T15:31:13.185Z,97589.91
2022-08-09T15:34:31.775Z,97585.81
2022-08-09T15:36:30.405Z,97581.81
2022-08-09T15:39:00.747Z,97574.19
2022-08-09T15:41:32.082Z,97573.56
2022-08-09T15:44:02.949Z,97576.34
2022-08-09T15:46:33.214Z,97567.84
2022-08-09T15:49:23.102Z,97575.97
2022-08-09T15:52:02.918Z,97574.25
2022-08-09T15:54:49.170Z,97576.22
2022-08-09T15:57:34.963Z,97578.53
2022-08-09T16:00:13.819Z,97586.66
2022-08-09T16:02:53.346Z,97574.78
2022-08-09T16:05:23.796Z,97588.81
2022-08-09T16:07:51.060Z,97587.50
2022-08-09T16:10:38.675Z,97580.50
2022-08-09T16:13:20.910Z,97584.56
2022-08-09T16:16:11.314Z,97571.03
2022-08-09T16:18:44.663Z,97575.09
2022-08-09T16:21:17.651Z,97576.75
2022-08-09T16:23:55.462Z,97575.13
2022-08-09T16:26:34.653Z,97566.16
2022-08-09T16:29:11.343Z,97566.16
2022-08-09T16:32:18.083Z,97572.09
2022-08-09T16:34:29.822Z,97562.34
2022-08-09T16:37:16.443Z,97567.25
2022-08-09T16:39:48.138Z,97561.28
2022-08-09T16:42:29.761Z,97564.53
2022-08-09T16:44:57.970Z,97554.78
2022-08-09T16:48:39.566Z,97573.41
2022-08-09T16:50:33.150Z,97568.88
2022-08-09T16:53:01.680Z,97567.28
2022-08-09T16:55:31.382Z,97568.63
2022-08-09T16:58:16.979Z,97575.31
2022-08-09T17:00:46.493Z,97572.66
2022-08-09T17:03:21.035Z,97572.09
2022-08-09T17:06:06.588Z,97570.22
2022-08-09T17:08:45.169Z,97567.19
2022-08-09T17:11:24.636Z,97580.09
2022-08-09T17:14:01.381Z,97578.47
2022-08-09T17:16:29.460Z,97577.44
2022-08-09T17:18:56.713Z,97578.25
2022-08-09T17:21:25.021Z,97592.19
2022-08-09T17:24:27.433Z,97589.75
2022-08-09T17:26:42.235Z,97582.75
2022-08-09T17:29:20.780Z,97593.53
2022-08-09T17:31:49.150Z,97590.44
2022-08-09T17:34:20.302Z,97602.59
2022-08-09T17:37:03.010Z,97593.13
2022-08-09T17:39:53.337Z,97606.16
2022-08-09T17:42:40.800Z,97597.69
2022-08-09T17:45:06.339Z,97604.53
2022-08-09T17:47:49.088Z,97602.19
2022-08-09T17:50:36.338Z,97606.75
2022-08-09T17:53:04.745Z,97612.94
2022-08-09T17:55:49.472Z,97605.94
2022-08-09T17:58:19.133Z,97607.88
2022-08-09T18:00:48.124Z,97617.97
2022-08-09T18:03:17.959Z,97610.31
2022-08-09T18:05:45.411Z,97611.97
2022-08-09T18:08:21.995Z,97614.50
2022-08-09T18:11:00.805Z,97615.41
2022-08-09T18:13:43.459Z,97624.03
2022-08-09T18:16:17.155Z,97620.41
2022-08-09T18:18:56.365Z,97624.41
2022-08-09T18:21:24.375Z,97622.91
2022-08-09T18:24:09.707Z,97625.50
2022-08-09T18:26:46.518Z,97634.00
2022-08-09T18:30:38.342Z,97637.22
2022-08-09T18:32:01.390Z,97632.41
2022-08-09T18:34:31.739Z,97637.41
2022-08-09T18:36:58.735Z,97642.63
2022-08-09T18:39:31.959Z,97645.50
2022-08-09T18:41:59.133Z,97653.84
2022-08-09T18:44:26.043Z,97645.88
2022-08-09T18:47:08.200Z,97653.22
2022-08-09T18:49:41.680Z,97650.03
2022-08-09T18:52:11.559Z,97648.97
2022-08-09T18:54:49.498Z,97653.50
2022-08-09T18:57:18.972Z,97658.56
2022-08-09T18:59:48.837Z,97655.69
2022-08-09T19:02:19.383Z,97659.78
2022-08-09T19:04:47.785Z,97661.47
2022-08-09T19:07:31.972Z,97673.78
2022-08-09T19:10:14.742Z,97668.03
2022-08-09T19:12:52.943Z,97675.31
2022-08-09T19:15:26.991Z,97677.56
2022-08-09T19:17:56.584Z,97680.56
2022-08-09T19:20:26.382Z,97685.38
2022-08-09T19:23:01.268Z,97684.69
2022-08-09T19:26:00.902Z,97684.09
2022-08-09T19:28:15.890Z,97685.53
2022-08-09T19:30:44.220Z,97691.56
2022-08-09T19:33:19.646Z,97683.34
2022-08-09T19:35:58.489Z,97693.91
2022-08-09T19:38:27.730Z,97690.88
2022-08-09T19:40:55.151Z,97690.53
2022-08-09T19:43:58.196Z,97689.13
2022-08-09T19:46:14.535Z,97691.69
2022-08-09T19:49:01.988Z,97690.66
2022-08-09T19:51:30.981Z,97694.59
2022-08-09T19:53:58.848Z,97701.81
2022-08-09T19:56:29.089Z,97703.47
2022-08-09T19:59:39.562Z,97701.69
2022-08-09T20:01:52.216Z,97711.47
2022-08-09T20:04:36.007Z,97709.44
2022-08-09T20:07:06.339Z,97714.66
2022-08-09T20:09:45.026Z,97717.16
2022-08-09T20:12:27.191Z,97714.28
2022-08-09T20:15:10.384Z,97717.00
2022-08-09T20:17:54.514Z,97723.13
2022-08-09T20:20:22.172Z,97723.16
2022-08-09T20:22:51.347Z,97718.91
2022-08-09T20:25:23.078Z,97726.44
2022-08-09T20:27:50.019Z,97729.13
2022-08-09T20:30:18.088Z,97730.00
2022-08-09T20:32:52.606Z,97731.69
2022-08-09T20:35:20.562Z,97730.34
2022-08-09T20:38:19.358Z,97737.03
2022-08-09T20:40:36.098Z,97746.34
2022-08-09T20:43:24.192Z,97748.34
2022-08-09T20:45:57.603Z,97750.34
2022-08-09T20:48:31.074Z,97743.19
2022-08-09T20:50:59.389Z,97745.97
2022-08-09T20:53:35.259Z,97741.25
2022-08-09T20:56:06.760Z,97746.81
2022-08-09T20:58:36.115Z,97746.97
2022-08-09T21:01:33.463Z,97753.41
2022-08-09T21:05:49.301Z,97757.63
2022-08-09T21:06:41.655Z,97751.94
2022-08-09T21:09:11.700Z,97757.06
2022-08-09T21:14:26.864Z,97763.38
2022-08-09T21:16:57.642Z,97759.00
2022-08-09T21:20:17.157Z,97759.13
2022-08-09T21:22:36.306Z,97763.84
2022-08-09T21:25:18.403Z,97747.25
2022-08-09T21:27:51.633Z,97750.34
2022-08-09T21:30:22.124Z,97758.34
2022-08-09T21:32:50.471Z,97768.13
2022-08-09T21:35:17.935Z,97767.97
2022-08-09T21:37:59.251Z,97755.84
2022-08-09T21:40:31.025Z,97762.41
2022-08-09T21:43:04.259Z,97771.50
2022-08-09T21:45:39.095Z,97764.91
2022-08-09T21:48:07.815Z,97765.34
2022-08-09T21:50:38.761Z,97761.66
2022-08-09T21:53:15.587Z,97758.44
2022-08-09T21:55:46.667Z,97764.34
2022-08-09T21:58:13.541Z,97772.34
2022-08-09T22:00:40.778Z,97765.41
2022-08-09T22:03:19.283Z,97769.91
2022-08-09T22:05:51.773Z,97766.22
2022-08-09T22:08:18.520Z,97766.66
2022-08-09T22:11:49.910Z,97758.03
2022-08-09T22:13:35.643Z,97764.59
2022-08-09T22:16:07.440Z,97764.59
2022-08-09T22:18:34.979Z,97764.38
2022-08-09T22:21:09.548Z,97757.84
2022-08-09T22:23:59.576Z,97764.78
2022-08-09T22:26:35.603Z,97764.34
2022-08-09T22:29:09.027Z,97770.50
2022-08-09T22:31:38.117Z,97763.53
2022-08-09T22:34:15.042Z,97765.97
2022-08-09T22:36:46.422Z,97767.81
2022-08-09T22:39:47.081Z,97775.31
2022-08-09T22:42:01.316Z,97772.50
2022-08-09T22:44:29.945Z,97770.44
2022-08-09T22:48:16.237Z,97773.09
2022-08-09T22:49:46.286Z,97774.50
2022-08-09T22:52:13.156Z,97771.84
2022-08-09T22:54:42.341Z,97777.84
2022-08-09T22:57:14.117Z,97773.63
2022-08-09T22:59:57.827Z,97776.91
2022-08-09T23:02:27.425Z,97776.72
2022-08-09T23:04:54.835Z,97775.03
2022-08-09T23:08:29.821Z,97777.72
2022-08-09T23:10:32.555Z,97778.97
2022-08-09T23:13:00.102Z,97770.91
2022-08-09T23:15:28.119Z,97776.06
2022-08-09T23:17:55.144Z,97774.47
2022-08-09T23:20:22.384Z,97769.16
2022-08-09T23:22:49.513Z,97768.94
2022-08-09T23:25:16.074Z,97765.72
2022-08-09T23:27:56.498Z,97761.84
2022-08-09T23:30:29.501Z,97770.88
2022-08-09T23:32:56.221Z,97766.06
2022-08-09T23:35:23.327Z,97768.72
2022-08-09T23:37:49.935Z,97769.19
2022-08-09T23:40:17.160Z,97765.44
2022-08-09T23:42:43.887Z,97761.44
2022-08-09T23:45:11.199Z,97767.78
2022-08-09T23:47:57.943Z,97759.50
2022-08-09T23:50:24.577Z,97759.88
2022-08-09T23:52:51.370Z,97765.88
2022-08-09T23:55:18.117Z,97757.28
2022-08-09T23:57:48.279Z,97761.03
